Delta Pride — DSNG6 — position and weather

sailwx.info

Track history (hours):
 
Tides and Currents Weather Stations Pressure Air Temp Water Temp Dewpoint Dewpoint Depression Visibility Wind Speed Wind Dir Waves Ship Positions

Delta Pride

Last reported at 2016-Jun-01 06:33 UTC. Time now 2016-Jun-29 21:57 UTC.
Position N 48°31' W 126°19'.
Warning: this ship's position is 28 days out of date.

Length 186 m; draft 11.2 m.

Type: Cargo ship. MMSI: 441339000.

Date/timePositionNaut miles runAvg speedWind from/ knotsBaromVisibWave heightAir tempDewpointWater temp
2016-Jun-01 06:33N 48°31' W 126°19'1211.9
2016-Jun-01 05:34N 48°30' W 126°01'1212.1
2016-Jun-01 04:33N 48°31' W 125°42'1212.3
2016-Jun-01 03:33N 48°30' W 125°24'1212.1
2016-Jun-01 02:33N 48°30' W 125°06'4113.4
2016-May-31 23:29N 48°20' W 124°06'1413.3
2016-May-31 22:28N 48°17' W 123°46'1112.1
2016-May-31 21:33N 48°17' W 123°29'10 9.7
2016-May-31 20:33N 48°23' W 123°18'1010.4
2016-May-31 19:33N 48°33' W 123°13'1110.8
2016-May-31 18:33N 48°43' W 123°11'9 9.1
2016-May-31 17:33N 48°51' W 123°03'1110.7
2016-May-31 16:33N 49°01' W 123°09'0 0.3
2016-May-31 15:24N 49°01' W 123°09'0 0.0
2016-May-31 14:30N 49°01' W 123°09'0 0.0
2016-May-31 13:30N 49°01' W 123°09'0 0.0
2016-May-31 12:33N 49°01' W 123°09'0 0.0
2016-May-31 11:30N 49°01' W 123°09'0 0.0
2016-May-31 10:33N 49°01' W 123°09'0 0.0
2016-May-31 09:33N 49°01' W 123°09'0 0.0
2016-May-31 08:33N 49°01' W 123°09'0 0.0
2016-May-31 07:33N 49°01' W 123°09'0 0.0
2016-May-31 06:33N 49°01' W 123°09'0 0.0
2016-May-31 04:33N 49°01' W 123°09'0 0.0
2016-May-31 03:30N 49°01' W 123°09'0 0.0
2016-May-31 02:33N 49°01' W 123°09'0 0.0
2016-May-31 01:33N 49°01' W 123°09'0 0.0
2016-May-31 00:30N 49°01' W 123°09'0 0.0
2016-May-30 23:27N 49°01' W 123°09'0 0.0
2016-May-30 22:33N 49°01' W 123°09'0 0.0
2016-May-30 21:30N 49°01' W 123°09'0 0.4
2016-May-30 20:33N 49°00' W 123°09'3 3.2
2016-May-30 19:33N 48°57' W 123°09'1111.4
2016-May-30 18:34N 48°47' W 123°01'1212.2
2016-May-30 17:33N 48°39' W 123°14'1313.1
2016-May-30 16:33N 48°26' W 123°10'1111.2
2016-May-30 15:33N 48°20' W 123°25'5 5.1
2016-May-30 14:33N 48°15' W 123°27'6 5.9
2016-May-30 13:33N 48°13' W 123°36'6 5.7
2016-May-30 12:33N 48°13' W 123°45'5 5.1
2016-May-30 11:30N 48°14' W 123°53'4210.2
2016-May-30 07:22N 48°28' W 124°52'8 9.9
2016-May-30 06:33N 48°25' W 125°03'1211.9
2016-May-30 05:30N 48°14' W 125°12'9312.8
2016-May-29 22:14N 46°48' W 126°05'11613.3
2016-May-29 13:31N 44°53' W 126°05'1313.0
2016-May-29 12:33N 44°40' W 126°05'1313.2
2016-May-29 11:33N 44°27' W 126°05'1312.8
2016-May-29 10:33N 44°14' W 126°05'34210.6
2016-May-28 02:18N 38°38' W 124°36'5 6.7
2016-May-28 01:33N 38°35' W 124°31'7 6.5
2016-May-28 00:33N 38°33' W 124°23'8 5.9
2016-May-27 23:15N 38°29' W 124°15'5 7.4
2016-May-27 22:32N 38°27' W 124°08'8 8.2
2016-May-27 21:33N 38°24' W 123°59'9 8.7
2016-May-27 20:33N 38°20' W 123°49'9 8.9
2016-May-27 19:33N 38°16' W 123°39'9 9.4
2016-May-27 18:33N 38°12' W 123°28'10 9.6
2016-May-27 17:33N 38°07' W 123°18'10 9.7
2016-May-27 16:33N 37°59' W 123°10'10 9.9
2016-May-27 15:33N 37°54' W 122°59'1110.8
2016-May-27 14:33N 37°49' W 122°47'1111.3
2016-May-27 13:33N 37°48' W 122°33'1111.0
2016-May-27 12:33N 37°57' W 122°27'1111.3
2016-May-27 11:33N 38°04' W 122°15'11 9.7
2016-May-27 10:26N 38°04' W 122°01'9 9.9
2016-May-27 09:34N 38°02' W 121°50'1 1.3
2016-May-27 08:33N 38°02' W 121°52'0 0.0
2016-May-27 07:30N 38°02' W 121°52'0 0.0
2016-May-27 06:30N 38°02' W 121°52'0 0.0
2016-May-27 05:33N 38°02' W 121°52'0 0.0
2016-May-27 04:29N 38°02' W 121°52'  
2016-May-24 22:05N 38°04' W 122°03'6 9.2
2016-May-24 21:24N 38°03' W 122°11'910.7
2016-May-24 20:33N 38°02' W 122°22'1111.4
2016-May-24 19:34N 37°51' W 122°25'1313.0
2016-May-24 18:33N 37°45' W 122°40'10 9.9
2016-May-24 17:33N 37°39' W 122°50'10 9.6
2016-May-24 16:34N 37°34' W 123°00'  
Track history (hours):
 
Tides and Currents Weather Stations Pressure Air Temp Water Temp Dewpoint Dewpoint Depression Visibility Wind Speed Wind Dir Waves Ship Positions

Delta Pride

Last reported at 2016-Jun-01 06:33 UTC. Time now 2016-Jun-29 21:57 UTC.
Position N 48°31' W 126°19'.
Warning: this ship's position is 28 days out of date.

Length 186 m; draft 11.2 m.

Type: Cargo ship. MMSI: 441339000.

Date/timePositionNaut miles runAvg speedWind from/ knotsBaromVisibWave heightAir tempDewpointWater temp
2016-Jun-01 06:33N 48°31' W 126°19'1211.9
2016-Jun-01 05:34N 48°30' W 126°01'1212.1
2016-Jun-01 04:33N 48°31' W 125°42'1212.3
2016-Jun-01 03:33N 48°30' W 125°24'1212.1
2016-Jun-01 02:33N 48°30' W 125°06'4113.4
2016-May-31 23:29N 48°20' W 124°06'1413.3
2016-May-31 22:28N 48°17' W 123°46'1112.1
2016-May-31 21:33N 48°17' W 123°29'10 9.7
2016-May-31 20:33N 48°23' W 123°18'1010.4
2016-May-31 19:33N 48°33' W 123°13'1110.8
2016-May-31 18:33N 48°43' W 123°11'9 9.1
2016-May-31 17:33N 48°51' W 123°03'1110.7
2016-May-31 16:33N 49°01' W 123°09'0 0.3
2016-May-31 15:24N 49°01' W 123°09'0 0.0
2016-May-31 14:30N 49°01' W 123°09'0 0.0
2016-May-31 13:30N 49°01' W 123°09'0 0.0
2016-May-31 12:33N 49°01' W 123°09'0 0.0
2016-May-31 11:30N 49°01' W 123°09'0 0.0
2016-May-31 10:33N 49°01' W 123°09'0 0.0
2016-May-31 09:33N 49°01' W 123°09'0 0.0
2016-May-31 08:33N 49°01' W 123°09'0 0.0
2016-May-31 07:33N 49°01' W 123°09'0 0.0
2016-May-31 06:33N 49°01' W 123°09'0 0.0
2016-May-31 04:33N 49°01' W 123°09'0 0.0
2016-May-31 03:30N 49°01' W 123°09'0 0.0
2016-May-31 02:33N 49°01' W 123°09'0 0.0
2016-May-31 01:33N 49°01' W 123°09'0 0.0
2016-May-31 00:30N 49°01' W 123°09'0 0.0
2016-May-30 23:27N 49°01' W 123°09'0 0.0
2016-May-30 22:33N 49°01' W 123°09'0 0.0
2016-May-30 21:30N 49°01' W 123°09'0 0.4
2016-May-30 20:33N 49°00' W 123°09'3 3.2
2016-May-30 19:33N 48°57' W 123°09'1111.4
2016-May-30 18:34N 48°47' W 123°01'1212.2
2016-May-30 17:33N 48°39' W 123°14'1313.1
2016-May-30 16:33N 48°26' W 123°10'1111.2
2016-May-30 15:33N 48°20' W 123°25'5 5.1
2016-May-30 14:33N 48°15' W 123°27'6 5.9
2016-May-30 13:33N 48°13' W 123°36'6 5.7
2016-May-30 12:33N 48°13' W 123°45'5 5.1
2016-May-30 11:30N 48°14' W 123°53'4210.2
2016-May-30 07:22N 48°28' W 124°52'8 9.9
2016-May-30 06:33N 48°25' W 125°03'1211.9
2016-May-30 05:30N 48°14' W 125°12'9312.8
2016-May-29 22:14N 46°48' W 126°05'11613.3
2016-May-29 13:31N 44°53' W 126°05'1313.0
2016-May-29 12:33N 44°40' W 126°05'1313.2
2016-May-29 11:33N 44°27' W 126°05'1312.8
2016-May-29 10:33N 44°14' W 126°05'34210.6
2016-May-28 02:18N 38°38' W 124°36'5 6.7
2016-May-28 01:33N 38°35' W 124°31'7 6.5
2016-May-28 00:33N 38°33' W 124°23'8 5.9
2016-May-27 23:15N 38°29' W 124°15'5 7.4
2016-May-27 22:32N 38°27' W 124°08'8 8.2
2016-May-27 21:33N 38°24' W 123°59'9 8.7
2016-May-27 20:33N 38°20' W 123°49'9 8.9
2016-May-27 19:33N 38°16' W 123°39'9 9.4
2016-May-27 18:33N 38°12' W 123°28'10 9.6
2016-May-27 17:33N 38°07' W 123°18'10 9.7
2016-May-27 16:33N 37°59' W 123°10'10 9.9
2016-May-27 15:33N 37°54' W 122°59'1110.8
2016-May-27 14:33N 37°49' W 122°47'1111.3
2016-May-27 13:33N 37°48' W 122°33'1111.0
2016-May-27 12:33N 37°57' W 122°27'1111.3
2016-May-27 11:33N 38°04' W 122°15'11 9.7
2016-May-27 10:26N 38°04' W 122°01'9 9.9
2016-May-27 09:34N 38°02' W 121°50'1 1.3
2016-May-27 08:33N 38°02' W 121°52'0 0.0
2016-May-27 07:30N 38°02' W 121°52'0 0.0
2016-May-27 06:30N 38°02' W 121°52'0 0.0
2016-May-27 05:33N 38°02' W 121°52'0 0.0
2016-May-27 04:29N 38°02' W 121°52'  
2016-May-24 22:05N 38°04' W 122°03'6 9.2
2016-May-24 21:24N 38°03' W 122°11'910.7
2016-May-24 20:33N 38°02' W 122°22'1111.4
2016-May-24 19:34N 37°51' W 122°25'1313.0
2016-May-24 18:33N 37°45' W 122°40'10 9.9
2016-May-24 17:33N 37°39' W 122°50'10 9.6
2016-May-24 16:34N 37°34' W 123°00'  

Dump ship's entire track history